sensor_id;sensor_type;location;lat;lon;timestamp;pressure;altitude;pressure_sealevel;temperature;humidity
34081;BME280;20358;50.272;19.026;2023-07-28T05:58:48;97355.47;;;26.07;42.38
34081;BME280;20358;50.272;19.026;2023-07-28T06:01:59;97347.69;;;26.46;41.39
34081;BME280;20358;50.272;19.026;2023-07-28T06:05:44;97352.75;;;26.76;40.88
34081;BME280;20358;50.272;19.026;2023-07-28T06:08:51;97355.75;;;26.94;40.66
34081;BME280;20358;50.272;19.026;2023-07-28T06:09:34;97351.63;;;26.98;40.58
34081;BME280;20358;50.272;19.026;2023-07-28T06:10:12;97361.31;;;26.99;40.53
34081;BME280;20358;50.272;19.026;2023-07-28T06:11:03;97353.91;;;27.01;40.51
34081;BME280;20358;50.272;19.026;2023-07-28T06:11:47;97361.13;;;27.07;40.38
34081;BME280;20358;50.272;19.026;2023-07-28T06:12:23;97350.81;;;27.04;40.29
34081;BME280;20358;50.272;19.026;2023-07-28T06:20:20;97348.50;;;26.88;40.34
34081;BME280;20358;50.272;19.026;2023-07-28T06:26:46;97353.53;;;25.95;43.05
34081;BME280;20358;50.272;19.026;2023-07-28T06:29:56;97352.91;;;25.65;43.97
34081;BME280;20358;50.272;19.026;2023-07-28T06:33:09;97350.91;;;25.46;44.59
34081;BME280;20358;50.272;19.026;2023-07-28T06:36:30;97360.44;;;25.34;44.96
34081;BME280;20358;50.272;19.026;2023-07-28T06:39:51;97363.38;;;25.39;45.53
34081;BME280;20358;50.272;19.026;2023-07-28T06:43:03;97366.03;;;25.39;47.52
34081;BME280;20358;50.272;19.026;2023-07-28T06:46:31;97370.63;;;25.02;47.28
34081;BME280;20358;50.272;19.026;2023-07-28T06:49:57;97359.50;;;24.84;47.66
34081;BME280;20358;50.272;19.026;2023-07-28T06:53:20;97370.56;;;24.81;47.92
34081;BME280;20358;50.272;19.026;2023-07-28T06:56:27;97364.63;;;25.00;48.05
34081;BME280;20358;50.272;19.026;2023-07-28T06:59:35;97370.63;;;24.88;49.83
34081;BME280;20358;50.272;19.026;2023-07-28T07:02:56;97378.88;;;24.57;51.10
34081;BME280;20358;50.272;19.026;2023-07-28T07:06:19;97384.06;;;24.15;52.64
34081;BME280;20358;50.272;19.026;2023-07-28T07:09:41;97375.16;;;23.48;55.21
34081;BME280;20358;50.272;19.026;2023-07-28T07:12:48;97380.97;;;23.51;54.57
34081;BME280;20358;50.272;19.026;2023-07-28T07:15:57;97383.56;;;23.59;53.88
34081;BME280;20358;50.272;19.026;2023-07-28T07:19:20;97388.03;;;23.81;53.21
34081;BME280;20358;50.272;19.026;2023-07-28T07:22:29;97389.53;;;23.98;52.74
34081;BME280;20358;50.272;19.026;2023-07-28T07:25:36;97395.03;;;24.20;52.53
34081;BME280;20358;50.272;19.026;2023-07-28T07:28:59;97403.72;;;23.99;54.22
34081;BME280;20358;50.272;19.026;2023-07-28T07:32:08;97411.03;;;23.82;55.02
34081;BME280;20358;50.272;19.026;2023-07-28T07:35:20;97392.16;;;23.69;54.79
34081;BME280;20358;50.272;19.026;2023-07-28T07:38:26;97393.09;;;23.39;56.34
34081;BME280;20358;50.272;19.026;2023-07-28T07:41:33;97396.56;;;23.09;56.58
34081;BME280;20358;50.272;19.026;2023-07-28T07:44:39;97395.69;;;22.94;56.69
34081;BME280;20358;50.272;19.026;2023-07-28T07:47:48;97396.31;;;22.96;57.52
34081;BME280;20358;50.272;19.026;2023-07-28T07:50:56;97403.06;;;22.83;58.61
34081;BME280;20358;50.272;19.026;2023-07-28T07:54:07;97396.09;;;22.82;58.86
34081;BME280;20358;50.272;19.026;2023-07-28T07:57:13;97390.50;;;22.69;58.78
34081;BME280;20358;50.272;19.026;2023-07-28T08:00:23;97397.78;;;22.75;59.45
34081;BME280;20358;50.272;19.026;2023-07-28T08:03:31;97399.00;;;22.65;60.05
34081;BME280;20358;50.272;19.026;2023-07-28T08:06:40;97393.66;;;22.57;60.57
34081;BME280;20358;50.272;19.026;2023-07-28T08:09:50;97410.91;;;22.85;59.45
34081;BME280;20358;50.272;19.026;2023-07-28T08:12:59;97403.63;;;23.02;57.85
34081;BME280;20358;50.272;19.026;2023-07-28T08:16:09;97412.25;;;23.34;57.24
34081;BME280;20358;50.272;19.026;2023-07-28T08:19:19;97378.44;;;23.27;57.97
34081;BME280;20358;50.272;19.026;2023-07-28T08:22:26;97408.59;;;23.58;57.47
34081;BME280;20358;50.272;19.026;2023-07-28T08:25:35;97400.50;;;23.66;56.45
34081;BME280;20358;50.272;19.026;2023-07-28T08:28:45;97397.69;;;23.82;57.66
34081;BME280;20358;50.272;19.026;2023-07-28T08:31:53;97405.09;;;23.95;55.77
34081;BME280;20358;50.272;19.026;2023-07-28T08:35:02;97410.66;;;24.08;57.52
34081;BME280;20358;50.272;19.026;2023-07-28T08:38:39;97389.59;;;24.28;55.92
34081;BME280;20358;50.272;19.026;2023-07-28T08:41:48;97407.63;;;24.26;56.98
34081;BME280;20358;50.272;19.026;2023-07-28T08:45:07;97410.69;;;24.23;55.43
34081;BME280;20358;50.272;19.026;2023-07-28T08:48:17;97404.22;;;24.46;55.42
34081;BME280;20358;50.272;19.026;2023-07-28T08:51:31;97400.16;;;24.36;55.44
34081;BME280;20358;50.272;19.026;2023-07-28T08:54:41;97405.97;;;24.54;54.96
34081;BME280;20358;50.272;19.026;2023-07-28T08:57:49;97407.91;;;24.60;54.21
34081;BME280;20358;50.272;19.026;2023-07-28T09:00:55;97398.88;;;24.61;53.89
34081;BME280;20358;50.272;19.026;2023-07-28T09:04:09;97409.38;;;24.77;53.89
34081;BME280;20358;50.272;19.026;2023-07-28T09:07:19;97401.34;;;24.77;54.06
34081;BME280;20358;50.272;19.026;2023-07-28T09:10:40;97406.13;;;24.96;53.02
34081;BME280;20358;50.272;19.026;2023-07-28T09:13:46;97399.34;;;24.79;53.61
34081;BME280;20358;50.272;19.026;2023-07-28T09:16:56;97416.28;;;24.86;52.99
34081;BME280;20358;50.272;19.026;2023-07-28T09:20:21;97417.56;;;24.90;53.35
34081;BME280;20358;50.272;19.026;2023-07-28T09:23:35;97418.41;;;24.76;53.51
34081;BME280;20358;50.272;19.026;2023-07-28T09:26:45;97416.47;;;24.70;54.18
34081;BME280;20358;50.272;19.026;2023-07-28T09:29:57;97410.38;;;24.76;54.19
34081;BME280;20358;50.272;19.026;2023-07-28T09:33:08;97405.13;;;24.68;54.13
34081;BME280;20358;50.272;19.026;2023-07-28T09:36:15;97399.69;;;24.76;53.28
34081;BME280;20358;50.272;19.026;2023-07-28T09:39:30;97396.72;;;25.00;53.26
34081;BME280;20358;50.272;19.026;2023-07-28T09:42:45;97403.03;;;25.14;52.83
34081;BME280;20358;50.272;19.026;2023-07-28T09:45:57;97400.28;;;25.07;52.53
34081;BME280;20358;50.272;19.026;2023-07-28T09:49:10;97408.94;;;25.09;53.10
34081;BME280;20358;50.272;19.026;2023-07-28T09:52:24;97412.09;;;24.98;52.91
34081;BME280;20358;50.272;19.026;2023-07-28T09:55:44;97415.97;;;25.10;52.64
34081;BME280;20358;50.272;19.026;2023-07-28T09:58:57;97411.41;;;25.25;51.38
34081;BME280;20358;50.272;19.026;2023-07-28T10:02:09;97411.97;;;25.42;51.62
34081;BME280;20358;50.272;19.026;2023-07-28T10:05:15;97419.84;;;25.65;51.08
34081;BME280;20358;50.272;19.026;2023-07-28T10:08:27;97407.94;;;25.95;50.20
34081;BME280;20358;50.272;19.026;2023-07-28T10:11:37;97400.19;;;25.79;49.75
34081;BME280;20358;50.272;19.026;2023-07-28T10:15:01;97402.09;;;25.85;49.86
34081;BME280;20358;50.272;19.026;2023-07-28T10:18:12;97407.06;;;25.88;50.20
34081;BME280;20358;50.272;19.026;2023-07-28T10:21:28;97406.78;;;26.04;49.87
34081;BME280;20358;50.272;19.026;2023-07-28T10:24:51;97411.84;;;25.93;49.81
34081;BME280;20358;50.272;19.026;2023-07-28T10:28:03;97421.19;;;26.03;50.28
34081;BME280;20358;50.272;19.026;2023-07-28T10:31:29;97402.94;;;26.13;49.20
34081;BME280;20358;50.272;19.026;2023-07-28T10:34:38;97429.34;;;26.16;49.48
34081;BME280;20358;50.272;19.026;2023-07-28T10:37:52;97413.84;;;26.12;49.09
34081;BME280;20358;50.272;19.026;2023-07-28T10:41:14;97434.88;;;26.15;49.58
34081;BME280;20358;50.272;19.026;2023-07-28T10:44:24;97432.75;;;26.04;49.36
34081;BME280;20358;50.272;19.026;2023-07-28T10:47:33;97446.31;;;26.02;50.11
34081;BME280;20358;50.272;19.026;2023-07-28T10:50:42;97441.25;;;25.86;50.34
34081;BME280;20358;50.272;19.026;2023-07-28T10:53:50;97441.09;;;25.94;49.65
34081;BME280;20358;50.272;19.026;2023-07-28T10:57:01;97432.53;;;26.33;49.18
34081;BME280;20358;50.272;19.026;2023-07-28T11:00:14;97432.22;;;26.42;49.57
34081;BME280;20358;50.272;19.026;2023-07-28T11:03:25;97427.00;;;26.69;49.07
34081;BME280;20358;50.272;19.026;2023-07-28T11:06:42;97422.66;;;26.68;49.01
34081;BME280;20358;50.272;19.026;2023-07-28T11:09:51;97433.53;;;26.60;49.05
34081;BME280;20358;50.272;19.026;2023-07-28T11:13:09;97428.09;;;26.46;48.88
34081;BME280;20358;50.272;19.026;2023-07-28T11:16:41;97427.50;;;26.79;47.20
34081;BME280;20358;50.272;19.026;2023-07-28T11:20:01;97413.09;;;26.86;48.03
34081;BME280;20358;50.272;19.026;2023-07-28T11:23:16;97418.09;;;27.02;46.93
34081;BME280;20358;50.272;19.026;2023-07-28T11:26:25;97425.81;;;26.78;48.21
34081;BME280;20358;50.272;19.026;2023-07-28T11:29:44;97424.09;;;26.64;48.51
34081;BME280;20358;50.272;19.026;2023-07-28T11:33:13;97430.50;;;26.35;49.63
34081;BME280;20358;50.272;19.026;2023-07-28T11:36:30;97435.66;;;26.36;49.72
34081;BME280;20358;50.272;19.026;2023-07-28T11:39:39;97431.38;;;26.42;49.67
34081;BME280;20358;50.272;19.026;2023-07-28T11:42:51;97437.66;;;26.56;48.77
34081;BME280;20358;50.272;19.026;2023-07-28T11:49:52;97447.34;;;26.57;49.12
34081;BME280;20358;50.272;19.026;2023-07-28T11:53:05;97460.72;;;26.50;49.37
34081;BME280;20358;50.272;19.026;2023-07-28T11:56:26;97451.69;;;26.58;49.29
34081;BME280;20358;50.272;19.026;2023-07-28T11:59:43;97446.25;;;26.51;49.45
34081;BME280;20358;50.272;19.026;2023-07-28T12:03:00;97434.34;;;26.54;49.23
34081;BME280;20358;50.272;19.026;2023-07-28T12:07:00;97436.16;;;26.81;48.06
34081;BME280;20358;50.272;19.026;2023-07-28T12:10:11;97434.44;;;26.73;49.30
34081;BME280;20358;50.272;19.026;2023-07-28T12:13:47;97417.16;;;26.82;48.17
34081;BME280;20358;50.272;19.026;2023-07-28T12:17:00;97423.75;;;26.80;48.04
34081;BME280;20358;50.272;19.026;2023-07-28T12:20:11;97429.88;;;26.67;49.65
34081;BME280;20358;50.272;19.026;2023-07-28T12:23:34;97438.91;;;26.60;50.03
34081;BME280;20358;50.272;19.026;2023-07-28T12:26:45;97419.56;;;26.71;48.85
34081;BME280;20358;50.272;19.026;2023-07-28T12:29:55;97426.59;;;26.72;49.15
34081;BME280;20358;50.272;19.026;2023-07-28T12:33:07;97421.34;;;26.91;49.20
34081;BME280;20358;50.272;19.026;2023-07-28T12:36:16;97419.38;;;27.13;48.06
34081;BME280;20358;50.272;19.026;2023-07-28T12:39:47;97409.44;;;27.07;48.96
34081;BME280;20358;50.272;19.026;2023-07-28T12:43:05;97420.22;;;27.27;48.63
34081;BME280;20358;50.272;19.026;2023-07-28T12:46:35;97435.53;;;27.33;47.61
34081;BME280;20358;50.272;19.026;2023-07-28T12:49:44;97434.13;;;27.43;46.76
34081;BME280;20358;50.272;19.026;2023-07-28T12:52:55;97433.53;;;27.54;47.11
34081;BME280;20358;50.272;19.026;2023-07-28T12:56:20;97436.47;;;27.73;45.86
34081;BME280;20358;50.272;19.026;2023-07-28T12:59:32;97432.72;;;27.87;46.09
34081;BME280;20358;50.272;19.026;2023-07-28T13:03:00;97431.09;;;27.86;46.54
34081;BME280;20358;50.272;19.026;2023-07-28T13:06:12;97438.91;;;27.61;45.55
34081;BME280;20358;50.272;19.026;2023-07-28T13:09:19;97422.19;;;27.59;45.92
34081;BME280;20358;50.272;19.026;2023-07-28T13:12:37;97435.19;;;27.55;46.38
34081;BME280;20358;50.272;19.026;2023-07-28T13:15:49;97441.38;;;27.49;46.67
34081;BME280;20358;50.272;19.026;2023-07-28T13:19:01;97438.47;;;27.51;46.63
34081;BME280;20358;50.272;19.026;2023-07-28T13:22:09;97434.34;;;27.48;46.97
34081;BME280;20358;50.272;19.026;2023-07-28T13:25:16;97440.50;;;27.36;48.71
34081;BME280;20358;50.272;19.026;2023-07-28T13:28:27;97435.75;;;27.31;48.87
34081;BME280;20358;50.272;19.026;2023-07-28T13:31:34;97445.81;;;27.29;49.00
34081;BME280;20358;50.272;19.026;2023-07-28T13:34:42;97440.44;;;27.29;48.88
34081;BME280;20358;50.272;19.026;2023-07-28T13:37:49;97430.94;;;27.20;48.62
34081;BME280;20358;50.272;19.026;2023-07-28T13:40:55;97428.00;;;27.02;48.83
34081;BME280;20358;50.272;19.026;2023-07-28T13:44:06;97437.69;;;27.03;49.32
34081;BME280;20358;50.272;19.026;2023-07-28T13:47:16;97432.53;;;27.01;48.75
34081;BME280;20358;50.272;19.026;2023-07-28T13:50:23;97434.53;;;26.93;48.63
34081;BME280;20358;50.272;19.026;2023-07-28T13:53:32;97430.88;;;27.00;48.70
34081;BME280;20358;50.272;19.026;2023-07-28T13:56:42;97430.91;;;27.14;48.31
34081;BME280;20358;50.272;19.026;2023-07-28T13:59:55;97422.28;;;27.18;48.35
34081;BME280;20358;50.272;19.026;2023-07-28T14:03:06;97408.03;;;27.18;48.77
34081;BME280;20358;50.272;19.026;2023-07-28T14:06:15;97421.06;;;27.27;47.76
34081;BME280;20358;50.272;19.026;2023-07-28T14:09:22;97415.69;;;27.27;47.98
34081;BME280;20358;50.272;19.026;2023-07-28T14:12:28;97418.97;;;27.23;48.02
34081;BME280;20358;50.272;19.026;2023-07-28T14:15:38;97409.09;;;27.30;47.78
34081;BME280;20358;50.272;19.026;2023-07-28T14:18:44;97406.00;;;27.26;47.15
34081;BME280;20358;50.272;19.026;2023-07-28T14:21:57;97405.38;;;27.37;47.19
34081;BME280;20358;50.272;19.026;2023-07-28T14:25:05;97393.03;;;27.43;47.19
34081;BME280;20358;50.272;19.026;2023-07-28T14:28:13;97395.75;;;27.49;47.50
34081;BME280;20358;50.272;19.026;2023-07-28T14:31:23;97403.34;;;27.52;47.24
34081;BME280;20358;50.272;19.026;2023-07-28T14:34:30;97400.06;;;27.50;47.03
34081;BME280;20358;50.272;19.026;2023-07-28T14:37:38;97391.59;;;27.47;47.67
34081;BME280;20358;50.272;19.026;2023-07-28T14:40:45;97396.34;;;27.51;47.57
34081;BME280;20358;50.272;19.026;2023-07-28T14:43:54;97399.22;;;27.50;47.75
34081;BME280;20358;50.272;19.026;2023-07-28T14:47:03;97398.63;;;27.54;48.04
34081;BME280;20358;50.272;19.026;2023-07-28T14:50:10;97396.16;;;27.46;48.37
34081;BME280;20358;50.272;19.026;2023-07-28T14:53:33;97387.03;;;27.47;48.86
34081;BME280;20358;50.272;19.026;2023-07-28T14:56:42;97386.66;;;27.57;48.71
34081;BME280;20358;50.272;19.026;2023-07-28T14:59:51;97388.13;;;27.73;48.72
34081;BME280;20358;50.272;19.026;2023-07-28T15:03:00;97374.03;;;27.84;47.94
34081;BME280;20358;50.272;19.026;2023-07-28T15:06:08;97390.56;;;27.94;48.09
34081;BME280;20358;50.272;19.026;2023-07-28T15:09:14;97366.19;;;27.95;47.31
34081;BME280;20358;50.272;19.026;2023-07-28T15:12:25;97380.25;;;28.10;47.13
34081;BME280;20358;50.272;19.026;2023-07-28T15:15:31;97389.75;;;28.26;46.99
34081;BME280;20358;50.272;19.026;2023-07-28T15:18:41;97399.22;;;28.48;46.53
34081;BME280;20358;50.272;19.026;2023-07-28T15:21:51;97401.03;;;28.74;46.10
34081;BME280;20358;50.272;19.026;2023-07-28T15:25:00;97406.59;;;29.30;45.24
34081;BME280;20358;50.272;19.026;2023-07-28T15:28:05;97405.88;;;30.03;43.84
34081;BME280;20358;50.272;19.026;2023-07-28T15:31:13;97412.34;;;30.82;42.63
34081;BME280;20358;50.272;19.026;2023-07-28T15:34:22;97406.16;;;31.59;40.58
34081;BME280;20358;50.272;19.026;2023-07-28T15:37:29;97398.75;;;32.07;39.76
34081;BME280;20358;50.272;19.026;2023-07-28T15:40:36;97380.28;;;32.62;37.35
34081;BME280;20358;50.272;19.026;2023-07-28T15:43:45;97403.34;;;33.16;36.86
34081;BME280;20358;50.272;19.026;2023-07-28T15:46:51;97381.66;;;33.72;36.38
34081;BME280;20358;50.272;19.026;2023-07-28T15:50:07;97398.66;;;34.01;35.55
34081;BME280;20358;50.272;19.026;2023-07-28T15:53:13;97390.00;;;34.16;34.99
34081;BME280;20358;50.272;19.026;2023-07-28T15:56:24;97399.13;;;34.10;35.16
34081;BME280;20358;50.272;19.026;2023-07-28T15:59:30;97397.78;;;33.79;35.38
34081;BME280;20358;50.272;19.026;2023-07-28T16:02:42;97396.97;;;33.22;36.02
34081;BME280;20358;50.272;19.026;2023-07-28T16:05:52;97390.97;;;32.45;37.05
34081;BME280;20358;50.272;19.026;2023-07-28T16:08:59;97420.91;;;31.74;38.35
34081;BME280;20358;50.272;19.026;2023-07-28T16:12:20;97425.94;;;30.93;39.47
34081;BME280;20358;50.272;19.026;2023-07-28T16:15:29;97425.44;;;30.42;40.45
34081;BME280;20358;50.272;19.026;2023-07-28T16:18:38;97443.91;;;29.89;41.63
34081;BME280;20358;50.272;19.026;2023-07-28T16:21:48;97436.72;;;29.45;42.50
34081;BME280;20358;50.272;19.026;2023-07-28T16:24:56;97449.94;;;29.09;43.35
34081;BME280;20358;50.272;19.026;2023-07-28T16:28:03;97465.34;;;28.82;44.26
34081;BME280;20358;50.272;19.026;2023-07-28T16:31:09;97464.16;;;28.52;45.24
34081;BME280;20358;50.272;19.026;2023-07-28T16:34:17;97479.91;;;28.35;46.00
34081;BME280;20358;50.272;19.026;2023-07-28T16:37:26;97479.47;;;27.99;46.97
34081;BME280;20358;50.272;19.026;2023-07-28T16:40:33;97481.53;;;27.90;47.65
34081;BME280;20358;50.272;19.026;2023-07-28T16:43:39;97505.50;;;27.85;48.08
34081;BME280;20358;50.272;19.026;2023-07-28T16:46:46;97497.81;;;27.62;48.98
34081;BME280;20358;50.272;19.026;2023-07-28T16:49:51;97498.34;;;27.45;49.75
34081;BME280;20358;50.272;19.026;2023-07-28T16:53:03;97485.91;;;27.31;49.68
34081;BME280;20358;50.272;19.026;2023-07-28T16:56:09;97477.31;;;27.42;50.02
34081;BME280;20358;50.272;19.026;2023-07-28T16:59:17;97469.50;;;27.66;49.94
34081;BME280;20358;50.272;19.026;2023-07-28T17:02:25;97467.91;;;28.11;49.48
34081;BME280;20358;50.272;19.026;2023-07-28T17:05:32;97489.41;;;28.44;49.20
34081;BME280;20358;50.272;19.026;2023-07-28T17:08:43;97477.38;;;28.60;48.41
34081;BME280;20358;50.272;19.026;2023-07-28T17:11:51;97470.97;;;28.54;48.11
34081;BME280;20358;50.272;19.026;2023-07-28T17:14:57;97479.44;;;28.51;47.81
34081;BME280;20358;50.272;19.026;2023-07-28T17:18:04;97483.41;;;28.42;47.25
34081;BME280;20358;50.272;19.026;2023-07-28T17:21:10;97467.91;;;28.24;47.91
34081;BME280;20358;50.272;19.026;2023-07-28T17:24:19;97471.22;;;28.07;48.60
34081;BME280;20358;50.272;19.026;2023-07-28T17:27:25;97468.91;;;27.78;49.27
34081;BME280;20358;50.272;19.026;2023-07-28T17:30:32;97479.38;;;27.46;50.23
34081;BME280;20358;50.272;19.026;2023-07-28T17:33:38;97481.09;;;27.13;51.27
34081;BME280;20358;50.272;19.026;2023-07-28T17:36:44;97483.88;;;26.92;51.87
34081;BME280;20358;50.272;19.026;2023-07-28T17:39:53;97494.66;;;26.71;51.59
34081;BME280;20358;50.272;19.026;2023-07-28T17:42:59;97497.41;;;26.49;52.30
34081;BME280;20358;50.272;19.026;2023-07-28T17:46:05;97497.31;;;26.36;53.03
34081;BME280;20358;50.272;19.026;2023-07-28T17:49:12;97499.50;;;26.26;53.59
34081;BME280;20358;50.272;19.026;2023-07-28T17:52:18;97510.81;;;26.22;53.89
34081;BME280;20358;50.272;19.026;2023-07-28T17:55:29;97505.84;;;26.19;54.42
34081;BME280;20358;50.272;19.026;2023-07-28T17:58:34;97498.09;;;26.09;55.02
34081;BME280;20358;50.272;19.026;2023-07-28T18:01:41;97504.47;;;25.87;55.95
34081;BME280;20358;50.272;19.026;2023-07-28T18:04:47;97502.47;;;25.68;57.23
34081;BME280;20358;50.272;19.026;2023-07-28T18:07:57;97496.19;;;25.61;57.17
34081;BME280;20358;50.272;19.026;2023-07-28T18:11:06;97511.41;;;25.60;57.53
34081;BME280;20358;50.272;19.026;2023-07-28T18:14:16;97508.22;;;25.50;57.70
34081;BME280;20358;50.272;19.026;2023-07-28T18:17:22;97514.84;;;25.40;57.83
34081;BME280;20358;50.272;19.026;2023-07-28T18:20:33;97515.63;;;25.34;58.13
34081;BME280;20358;50.272;19.026;2023-07-28T18:23:38;97509.34;;;25.26;58.17
34081;BME280;20358;50.272;19.026;2023-07-28T18:26:48;97502.72;;;25.22;58.22
34081;BME280;20358;50.272;19.026;2023-07-28T18:29:54;97512.53;;;25.15;58.36
34081;BME280;20358;50.272;19.026;2023-07-28T18:33:01;97509.59;;;25.10;58.59
34081;BME280;20358;50.272;19.026;2023-07-28T18:36:09;97521.28;;;25.09;58.67
34081;BME280;20358;50.272;19.026;2023-07-28T18:39:19;97516.41;;;24.98;58.70
34081;BME280;20358;50.272;19.026;2023-07-28T18:42:28;97511.81;;;24.92;58.78
34081;BME280;20358;50.272;19.026;2023-07-28T18:45:36;97517.06;;;24.86;58.87
34081;BME280;20358;50.272;19.026;2023-07-28T18:48:43;97513.28;;;24.80;59.23
34081;BME280;20358;50.272;19.026;2023-07-28T18:51:52;97525.00;;;24.79;59.16
34081;BME280;20358;50.272;19.026;2023-07-28T18:54:58;97526.34;;;24.75;59.28
34081;BME280;20358;50.272;19.026;2023-07-28T18:58:14;97530.03;;;24.74;58.97
34081;BME280;20358;50.272;19.026;2023-07-28T19:01:21;97544.41;;;24.73;58.81
34081;BME280;20358;50.272;19.026;2023-07-28T19:04:32;97537.78;;;24.69;58.49
34081;BME280;20358;50.272;19.026;2023-07-28T19:07:38;97533.44;;;24.68;58.10
34081;BME280;20358;50.272;19.026;2023-07-28T19:10:47;97537.31;;;24.65;58.17
34081;BME280;20358;50.272;19.026;2023-07-28T19:13:56;97541.81;;;24.65;58.23
34081;BME280;20358;50.272;19.026;2023-07-28T19:17:04;97537.78;;;24.69;58.42
34081;BME280;20358;50.272;19.026;2023-07-28T19:20:13;97538.22;;;24.73;58.41
34081;BME280;20358;50.272;19.026;2023-07-28T19:23:27;97547.28;;;24.72;58.86
34081;BME280;20358;50.272;19.026;2023-07-28T19:26:33;97545.06;;;24.75;58.75
34081;BME280;20358;50.272;19.026;2023-07-28T19:29:51;97550.22;;;24.77;59.16
34081;BME280;20358;50.272;19.026;2023-07-28T19:32:57;97546.09;;;24.74;59.26
34081;BME280;20358;50.272;19.026;2023-07-28T19:36:06;97548.09;;;24.72;59.83
34081;BME280;20358;50.272;19.026;2023-07-28T19:39:12;97562.91;;;24.60;61.91
34081;BME280;20358;50.272;19.026;2023-07-28T19:42:25;97574.56;;;24.07;67.00
34081;BME280;20358;50.272;19.026;2023-07-28T19:45:33;97583.75;;;23.51;68.54
34081;BME280;20358;50.272;19.026;2023-07-28T19:48:42;97588.41;;;23.02;69.98
34081;BME280;20358;50.272;19.026;2023-07-28T19:51:48;97584.16;;;22.77;71.13
34081;BME280;20358;50.272;19.026;2023-07-28T19:54:55;97594.97;;;22.59;72.55
34081;BME280;20358;50.272;19.026;2023-07-28T19:58:01;97583.00;;;22.47;73.77
34081;BME280;20358;50.272;19.026;2023-07-28T20:01:14;97577.19;;;22.44;73.61
34081;BME280;20358;50.272;19.026;2023-07-28T20:04:20;97588.31;;;22.47;74.21
34081;BME280;20358;50.272;19.026;2023-07-28T20:07:29;97580.19;;;22.49;74.05
34081;BME280;20358;50.272;19.026;2023-07-28T20:10:34;97585.00;;;22.45;72.86
34081;BME280;20358;50.272;19.026;2023-07-28T20:13:50;97583.84;;;22.48;72.45
34081;BME280;20358;50.272;19.026;2023-07-28T20:16:59;97582.34;;;22.45;72.28
34081;BME280;20358;50.272;19.026;2023-07-28T20:20:08;97592.81;;;22.47;72.01
34081;BME280;20358;50.272;19.026;2023-07-28T20:23:17;97592.00;;;22.46;70.84
34081;BME280;20358;50.272;19.026;2023-07-28T20:26:24;97590.34;;;22.45;71.84
34081;BME280;20358;50.272;19.026;2023-07-28T20:29:30;97593.31;;;22.42;71.95
34081;BME280;20358;50.272;19.026;2023-07-28T20:32:44;97594.66;;;22.38;72.07
34081;BME280;20358;50.272;19.026;2023-07-28T20:35:52;97597.47;;;22.29;71.46
34081;BME280;20358;50.272;19.026;2023-07-28T20:38:58;97574.34;;;22.13;71.72
34081;BME280;20358;50.272;19.026;2023-07-28T20:42:07;97588.84;;;22.18;72.43
34081;BME280;20358;50.272;19.026;2023-07-28T20:45:18;97585.50;;;22.16;72.96
34081;BME280;20358;50.272;19.026;2023-07-28T20:48:27;97590.84;;;22.16;73.08
34081;BME280;20358;50.272;19.026;2023-07-28T20:51:35;97571.19;;;22.01;73.45
34081;BME280;20358;50.272;19.026;2023-07-28T20:54:44;97590.00;;;22.16;73.69
34081;BME280;20358;50.272;19.026;2023-07-28T20:57:56;97593.84;;;22.21;73.75
34081;BME280;20358;50.272;19.026;2023-07-28T21:01:07;97573.38;;;22.14;73.67
34081;BME280;20358;50.272;19.026;2023-07-28T21:04:19;97598.00;;;22.32;73.24
34081;BME280;20358;50.272;19.026;2023-07-28T21:07:25;97596.66;;;22.36;73.47
34081;BME280;20358;50.272;19.026;2023-07-28T21:10:32;97594.31;;;22.41;73.65
34081;BME280;20358;50.272;19.026;2023-07-28T21:13:38;97592.34;;;22.43;73.09
34081;BME280;20358;50.272;19.026;2023-07-28T21:16:45;97577.66;;;22.39;73.11
34081;BME280;20358;50.272;19.026;2023-07-28T21:19:55;97594.81;;;22.45;73.25
34081;BME280;20358;50.272;19.026;2023-07-28T21:23:03;97593.97;;;22.44;73.09
34081;BME280;20358;50.272;19.026;2023-07-28T21:26:09;97596.66;;;22.44;73.36
34081;BME280;20358;50.272;19.026;2023-07-28T21:29:18;97593.97;;;22.44;73.16
34081;BME280;20358;50.272;19.026;2023-07-28T21:32:26;97598.66;;;22.42;72.84
34081;BME280;20358;50.272;19.026;2023-07-28T21:35:36;97597.81;;;22.42;73.13
34081;BME280;20358;50.272;19.026;2023-07-28T21:38:42;97599.50;;;22.43;73.28
34081;BME280;20358;50.272;19.026;2023-07-28T21:41:50;97604.97;;;22.41;72.91
34081;BME280;20358;50.272;19.026;2023-07-28T21:44:57;97608.13;;;22.37;73.29
34081;BME280;20358;50.272;19.026;2023-07-28T21:48:12;97615.97;;;22.38;73.09
34081;BME280;20358;50.272;19.026;2023-07-28T21:51:27;97609.31;;;22.34;73.20
34081;BME280;20358;50.272;19.026;2023-07-28T21:54:34;97615.97;;;22.30;73.41
34081;BME280;20358;50.272;19.026;2023-07-28T21:57:40;97614.63;;;22.34;73.46
34081;BME280;20358;50.272;19.026;2023-07-28T22:00:49;97619.13;;;22.34;72.77
34081;BME280;20358;50.272;19.026;2023-07-28T22:03:55;97612.28;;;22.23;73.16
34081;BME280;20358;50.272;19.026;2023-07-28T22:07:04;97635.25;;;22.24;73.21
34081;BME280;20358;50.272;19.026;2023-07-28T22:10:11;97630.59;;;22.18;73.29
34081;BME280;20358;50.272;19.026;2023-07-28T22:13:18;97637.25;;;22.14;73.09
34081;BME280;20358;50.272;19.026;2023-07-28T22:16:25;97650.56;;;22.14;73.62
34081;BME280;20358;50.272;19.026;2023-07-28T22:19:34;97638.75;;;22.16;73.51
34081;BME280;20358;50.272;19.026;2023-07-28T22:22:43;97660.91;;;22.17;73.35
34081;BME280;20358;50.272;19.026;2023-07-28T22:25:51;97669.22;;;22.14;72.95
34081;BME280;20358;50.272;19.026;2023-07-28T22:28:57;97659.53;;;22.13;73.08
34081;BME280;20358;50.272;19.026;2023-07-28T22:32:05;97668.38;;;22.13;73.17
34081;BME280;20358;50.272;19.026;2023-07-28T22:35:13;97664.88;;;22.13;72.94